sensor_id;sensor_type;location;lat;lon;timestamp;P1;durP1;ratioP1;P2;durP2;ratioP2
44842;SDS011;31884;52.538;13.820;2023-12-04T00:00:38;22.42;;;10.13;;
44842;SDS011;31884;52.538;13.820;2023-12-04T00:03:04;23.27;;;10.40;;
44842;SDS011;31884;52.538;13.820;2023-12-04T00:05:30;23.70;;;10.82;;
44842;SDS011;31884;52.538;13.820;2023-12-04T00:07:55;22.15;;;10.63;;
44842;SDS011;31884;52.538;13.820;2023-12-04T00:10:20;16.77;;;9.00;;
44842;SDS011;31884;52.538;13.820;2023-12-04T00:12:46;27.67;;;12.00;;
44842;SDS011;31884;52.538;13.820;2023-12-04T00:15:11;24.67;;;11.13;;
44842;SDS011;31884;52.538;13.820;2023-12-04T00:17:37;28.55;;;11.82;;
44842;SDS011;31884;52.538;13.820;2023-12-04T00:20:08;26.60;;;11.30;;
44842;SDS011;31884;52.538;13.820;2023-12-04T00:22:34;25.35;;;10.10;;
44842;SDS011;31884;52.538;13.820;2023-12-04T00:25:00;30.13;;;11.13;;
44842;SDS011;31884;52.538;13.820;2023-12-04T00:27:28;23.55;;;9.93;;
44842;SDS011;31884;52.538;13.820;2023-12-04T00:29:53;30.02;;;10.52;;
44842;SDS011;31884;52.538;13.820;2023-12-04T00:32:19;22.52;;;10.02;;
44842;SDS011;31884;52.538;13.820;2023-12-04T00:34:45;19.83;;;8.73;;
44842;SDS011;31884;52.538;13.820;2023-12-04T00:37:10;20.65;;;9.02;;
44842;SDS011;31884;52.538;13.820;2023-12-04T00:39:36;23.42;;;9.32;;
44842;SDS011;31884;52.538;13.820;2023-12-04T00:42:02;25.83;;;9.52;;
44842;SDS011;31884;52.538;13.820;2023-12-04T00:44:27;21.58;;;8.95;;
44842;SDS011;31884;52.538;13.820;2023-12-04T00:46:53;25.38;;;10.18;;
44842;SDS011;31884;52.538;13.820;2023-12-04T00:49:18;22.92;;;9.23;;
44842;SDS011;31884;52.538;13.820;2023-12-04T00:51:44;22.15;;;8.63;;
44842;SDS011;31884;52.538;13.820;2023-12-04T00:54:10;24.27;;;9.52;;
44842;SDS011;31884;52.538;13.820;2023-12-04T00:56:37;24.08;;;8.48;;
44842;SDS011;31884;52.538;13.820;2023-12-04T00:59:04;21.17;;;8.45;;
44842;SDS011;31884;52.538;13.820;2023-12-04T01:01:31;20.50;;;8.80;;
44842;SDS011;31884;52.538;13.820;2023-12-04T01:03:57;22.45;;;8.88;;
44842;SDS011;31884;52.538;13.820;2023-12-04T01:06:23;20.80;;;9.38;;
44842;SDS011;31884;52.538;13.820;2023-12-04T01:08:49;18.38;;;8.07;;
44842;SDS011;31884;52.538;13.820;2023-12-04T01:11:15;23.08;;;9.15;;
44842;SDS011;31884;52.538;13.820;2023-12-04T01:13:41;22.35;;;7.70;;
44842;SDS011;31884;52.538;13.820;2023-12-04T01:16:07;24.23;;;9.07;;
44842;SDS011;31884;52.538;13.820;2023-12-04T01:18:34;18.30;;;7.93;;
44842;SDS011;31884;52.538;13.820;2023-12-04T01:21:00;21.30;;;8.48;;
44842;SDS011;31884;52.538;13.820;2023-12-04T01:23:25;16.98;;;7.45;;
44842;SDS011;31884;52.538;13.820;2023-12-04T01:25:51;19.40;;;7.72;;
44842;SDS011;31884;52.538;13.820;2023-12-04T01:28:16;20.73;;;9.07;;
44842;SDS011;31884;52.538;13.820;2023-12-04T01:30:42;17.75;;;8.02;;
44842;SDS011;31884;52.538;13.820;2023-12-04T01:33:07;18.73;;;7.60;;
44842;SDS011;31884;52.538;13.820;2023-12-04T01:35:33;17.10;;;8.73;;
44842;SDS011;31884;52.538;13.820;2023-12-04T01:37:59;18.27;;;8.23;;
44842;SDS011;31884;52.538;13.820;2023-12-04T01:40:25;18.13;;;9.77;;
44842;SDS011;31884;52.538;13.820;2023-12-04T01:42:51;19.55;;;9.48;;
44842;SDS011;31884;52.538;13.820;2023-12-04T01:45:16;22.77;;;9.63;;
44842;SDS011;31884;52.538;13.820;2023-12-04T01:47:42;19.85;;;8.57;;
44842;SDS011;31884;52.538;13.820;2023-12-04T01:50:08;25.50;;;10.55;;
44842;SDS011;31884;52.538;13.820;2023-12-04T01:52:35;21.90;;;9.77;;
44842;SDS011;31884;52.538;13.820;2023-12-04T01:55:01;25.50;;;8.63;;
44842;SDS011;31884;52.538;13.820;2023-12-04T01:57:28;16.42;;;7.75;;
44842;SDS011;31884;52.538;13.820;2023-12-04T01:59:53;17.17;;;7.63;;
44842;SDS011;31884;52.538;13.820;2023-12-04T02:02:19;22.30;;;9.18;;
44842;SDS011;31884;52.538;13.820;2023-12-04T02:04:45;22.02;;;9.90;;
44842;SDS011;31884;52.538;13.820;2023-12-04T02:07:11;19.20;;;9.20;;
44842;SDS011;31884;52.538;13.820;2023-12-04T02:09:37;20.85;;;8.65;;
44842;SDS011;31884;52.538;13.820;2023-12-04T02:12:02;20.02;;;8.93;;
44842;SDS011;31884;52.538;13.820;2023-12-04T02:14:28;21.27;;;7.88;;
44842;SDS011;31884;52.538;13.820;2023-12-04T02:16:54;26.63;;;9.55;;
44842;SDS011;31884;52.538;13.820;2023-12-04T02:19:22;18.15;;;8.63;;
44842;SDS011;31884;52.538;13.820;2023-12-04T02:21:48;18.42;;;8.27;;
44842;SDS011;31884;52.538;13.820;2023-12-04T02:24:14;23.67;;;8.55;;
44842;SDS011;31884;52.538;13.820;2023-12-04T02:26:44;18.13;;;8.02;;
44842;SDS011;31884;52.538;13.820;2023-12-04T02:29:29;24.75;;;8.82;;
44842;SDS011;31884;52.538;13.820;2023-12-04T02:31:59;21.10;;;8.48;;
44842;SDS011;31884;52.538;13.820;2023-12-04T02:34:28;20.35;;;8.55;;
44842;SDS011;31884;52.538;13.820;2023-12-04T02:36:57;24.23;;;10.15;;
44842;SDS011;31884;52.538;13.820;2023-12-04T02:39:24;18.00;;;8.77;;
44842;SDS011;31884;52.538;13.820;2023-12-04T02:41:50;18.45;;;7.18;;
44842;SDS011;31884;52.538;13.820;2023-12-04T02:44:16;19.53;;;7.87;;
44842;SDS011;31884;52.538;13.820;2023-12-04T02:46:41;20.55;;;9.35;;
44842;SDS011;31884;52.538;13.820;2023-12-04T02:49:07;18.95;;;8.32;;
44842;SDS011;31884;52.538;13.820;2023-12-04T02:51:33;37.78;;;14.23;;
44842;SDS011;31884;52.538;13.820;2023-12-04T02:53:58;24.85;;;10.80;;
44842;SDS011;31884;52.538;13.820;2023-12-04T02:56:24;35.20;;;13.98;;
44842;SDS011;31884;52.538;13.820;2023-12-04T02:58:49;34.92;;;14.55;;
44842;SDS011;31884;52.538;13.820;2023-12-04T03:01:14;30.23;;;12.80;;
44842;SDS011;31884;52.538;13.820;2023-12-04T03:03:40;20.58;;;9.20;;
44842;SDS011;31884;52.538;13.820;2023-12-04T03:06:06;23.90;;;9.60;;
44842;SDS011;31884;52.538;13.820;2023-12-04T03:08:31;28.45;;;11.25;;
44842;SDS011;31884;52.538;13.820;2023-12-04T03:10:57;23.35;;;10.05;;
44842;SDS011;31884;52.538;13.820;2023-12-04T03:13:22;22.27;;;10.10;;
44842;SDS011;31884;52.538;13.820;2023-12-04T03:15:48;22.77;;;9.98;;
44842;SDS011;31884;52.538;13.820;2023-12-04T03:18:13;27.05;;;11.23;;
44842;SDS011;31884;52.538;13.820;2023-12-04T03:20:39;23.05;;;8.93;;
44842;SDS011;31884;52.538;13.820;2023-12-04T03:23:05;35.67;;;14.20;;
44842;SDS011;31884;52.538;13.820;2023-12-04T03:25:30;23.75;;;10.45;;
44842;SDS011;31884;52.538;13.820;2023-12-04T03:27:56;28.80;;;11.27;;
44842;SDS011;31884;52.538;13.820;2023-12-04T03:30:21;33.30;;;12.63;;
44842;SDS011;31884;52.538;13.820;2023-12-04T03:32:47;33.15;;;14.75;;
44842;SDS011;31884;52.538;13.820;2023-12-04T03:35:12;24.92;;;12.18;;
44842;SDS011;31884;52.538;13.820;2023-12-04T03:37:38;31.23;;;13.23;;
44842;SDS011;31884;52.538;13.820;2023-12-04T03:40:03;25.20;;;11.18;;
44842;SDS011;31884;52.538;13.820;2023-12-04T03:42:29;36.50;;;11.50;;
44842;SDS011;31884;52.538;13.820;2023-12-04T03:44:55;25.95;;;11.07;;
44842;SDS011;31884;52.538;13.820;2023-12-04T03:47:20;30.23;;;13.02;;
44842;SDS011;31884;52.538;13.820;2023-12-04T03:49:46;25.08;;;10.35;;
44842;SDS011;31884;52.538;13.820;2023-12-04T03:52:11;23.95;;;11.05;;
44842;SDS011;31884;52.538;13.820;2023-12-04T03:54:36;25.85;;;10.32;;
44842;SDS011;31884;52.538;13.820;2023-12-04T03:57:02;24.02;;;10.52;;
44842;SDS011;31884;52.538;13.820;2023-12-04T03:59:28;28.77;;;12.15;;
44842;SDS011;31884;52.538;13.820;2023-12-04T04:01:53;42.90;;;15.40;;
44842;SDS011;31884;52.538;13.820;2023-12-04T04:04:19;33.63;;;14.15;;
44842;SDS011;31884;52.538;13.820;2023-12-04T04:06:44;42.58;;;14.52;;
44842;SDS011;31884;52.538;13.820;2023-12-04T04:09:10;44.03;;;17.02;;
44842;SDS011;31884;52.538;13.820;2023-12-04T04:11:35;44.55;;;17.58;;
44842;SDS011;31884;52.538;13.820;2023-12-04T04:14:01;36.15;;;14.77;;
44842;SDS011;31884;52.538;13.820;2023-12-04T04:16:26;33.37;;;13.80;;
44842;SDS011;31884;52.538;13.820;2023-12-04T04:18:52;61.72;;;21.80;;
44842;SDS011;31884;52.538;13.820;2023-12-04T04:21:17;35.75;;;13.10;;
44842;SDS011;31884;52.538;13.820;2023-12-04T04:23:43;40.03;;;13.98;;
44842;SDS011;31884;52.538;13.820;2023-12-04T04:26:08;52.45;;;19.02;;
44842;SDS011;31884;52.538;13.820;2023-12-04T04:28:34;41.88;;;14.93;;
44842;SDS011;31884;52.538;13.820;2023-12-04T04:30:59;44.08;;;16.95;;
44842;SDS011;31884;52.538;13.820;2023-12-04T04:33:25;41.95;;;16.02;;
44842;SDS011;31884;52.538;13.820;2023-12-04T04:35:50;38.90;;;16.83;;
44842;SDS011;31884;52.538;13.820;2023-12-04T04:38:16;35.88;;;14.30;;
44842;SDS011;31884;52.538;13.820;2023-12-04T04:40:41;46.85;;;18.88;;
44842;SDS011;31884;52.538;13.820;2023-12-04T04:43:09;51.78;;;19.08;;
44842;SDS011;31884;52.538;13.820;2023-12-04T04:45:35;42.63;;;17.85;;
44842;SDS011;31884;52.538;13.820;2023-12-04T04:48:00;39.95;;;16.55;;
44842;SDS011;31884;52.538;13.820;2023-12-04T04:50:26;33.38;;;14.85;;
44842;SDS011;31884;52.538;13.820;2023-12-04T04:52:51;44.75;;;17.98;;
44842;SDS011;31884;52.538;13.820;2023-12-04T04:55:17;43.53;;;17.45;;
44842;SDS011;31884;52.538;13.820;2023-12-04T04:57:42;43.63;;;16.83;;
44842;SDS011;31884;52.538;13.820;2023-12-04T05:00:08;38.17;;;16.63;;
44842;SDS011;31884;52.538;13.820;2023-12-04T05:02:34;51.45;;;20.70;;
44842;SDS011;31884;52.538;13.820;2023-12-04T05:05:02;51.90;;;20.90;;
44842;SDS011;31884;52.538;13.820;2023-12-04T05:07:28;57.42;;;21.10;;
44842;SDS011;31884;52.538;13.820;2023-12-04T05:09:54;48.67;;;18.70;;
44842;SDS011;31884;52.538;13.820;2023-12-04T05:12:19;54.50;;;22.92;;
44842;SDS011;31884;52.538;13.820;2023-12-04T05:14:45;54.33;;;22.55;;
44842;SDS011;31884;52.538;13.820;2023-12-04T05:17:10;42.40;;;18.17;;
44842;SDS011;31884;52.538;13.820;2023-12-04T05:19:36;44.67;;;17.17;;
44842;SDS011;31884;52.538;13.820;2023-12-04T05:22:01;36.13;;;15.75;;
44842;SDS011;31884;52.538;13.820;2023-12-04T05:24:27;32.95;;;14.68;;
44842;SDS011;31884;52.538;13.820;2023-12-04T05:26:52;38.22;;;15.65;;
44842;SDS011;31884;52.538;13.820;2023-12-04T05:29:18;44.97;;;17.15;;
44842;SDS011;31884;52.538;13.820;2023-12-04T05:31:44;40.60;;;16.60;;
44842;SDS011;31884;52.538;13.820;2023-12-04T05:34:09;37.00;;;16.92;;
44842;SDS011;31884;52.538;13.820;2023-12-04T05:36:35;43.58;;;17.58;;
44842;SDS011;31884;52.538;13.820;2023-12-04T05:39:00;51.65;;;19.92;;
44842;SDS011;31884;52.538;13.820;2023-12-04T05:41:26;39.28;;;17.05;;
44842;SDS011;31884;52.538;13.820;2023-12-04T05:43:51;38.45;;;14.50;;
44842;SDS011;31884;52.538;13.820;2023-12-04T05:46:18;55.85;;;20.40;;
44842;SDS011;31884;52.538;13.820;2023-12-04T05:48:43;41.90;;;16.67;;
44842;SDS011;31884;52.538;13.820;2023-12-04T05:51:09;48.78;;;18.67;;
44842;SDS011;31884;52.538;13.820;2023-12-04T05:53:36;44.47;;;18.98;;
44842;SDS011;31884;52.538;13.820;2023-12-04T05:56:01;37.88;;;15.23;;
44842;SDS011;31884;52.538;13.820;2023-12-04T05:58:27;46.83;;;17.83;;
44842;SDS011;31884;52.538;13.820;2023-12-04T06:00:53;44.42;;;17.95;;
44842;SDS011;31884;52.538;13.820;2023-12-04T06:03:18;58.15;;;23.02;;
44842;SDS011;31884;52.538;13.820;2023-12-04T06:05:44;50.03;;;19.13;;
44842;SDS011;31884;52.538;13.820;2023-12-04T06:08:09;54.60;;;21.10;;
44842;SDS011;31884;52.538;13.820;2023-12-04T06:10:34;40.92;;;16.35;;
44842;SDS011;31884;52.538;13.820;2023-12-04T06:13:00;51.03;;;19.80;;
44842;SDS011;31884;52.538;13.820;2023-12-04T06:15:26;47.47;;;17.98;;
44842;SDS011;31884;52.538;13.820;2023-12-04T06:17:51;47.60;;;18.67;;
44842;SDS011;31884;52.538;13.820;2023-12-04T06:20:17;54.63;;;19.33;;
44842;SDS011;31884;52.538;13.820;2023-12-04T06:22:42;50.60;;;19.50;;
44842;SDS011;31884;52.538;13.820;2023-12-04T06:25:08;42.22;;;17.73;;
44842;SDS011;31884;52.538;13.820;2023-12-04T06:27:34;53.67;;;19.05;;
44842;SDS011;31884;52.538;13.820;2023-12-04T06:30:00;40.85;;;16.38;;
44842;SDS011;31884;52.538;13.820;2023-12-04T06:32:26;41.17;;;15.82;;
44842;SDS011;31884;52.538;13.820;2023-12-04T06:34:52;45.15;;;17.08;;
44842;SDS011;31884;52.538;13.820;2023-12-04T06:37:20;37.58;;;15.70;;
44842;SDS011;31884;52.538;13.820;2023-12-04T06:39:46;31.90;;;15.45;;
44842;SDS011;31884;52.538;13.820;2023-12-04T06:42:14;43.78;;;18.90;;
44842;SDS011;31884;52.538;13.820;2023-12-04T06:44:40;39.83;;;15.40;;
44842;SDS011;31884;52.538;13.820;2023-12-04T06:47:07;39.17;;;14.45;;
44842;SDS011;31884;52.538;13.820;2023-12-04T06:49:34;38.95;;;15.55;;
44842;SDS011;31884;52.538;13.820;2023-12-04T06:51:59;30.10;;;14.52;;
44842;SDS011;31884;52.538;13.820;2023-12-04T06:54:25;34.17;;;14.85;;
44842;SDS011;31884;52.538;13.820;2023-12-04T06:56:51;47.92;;;16.55;;
44842;SDS011;31884;52.538;13.820;2023-12-04T06:59:17;44.10;;;17.55;;
44842;SDS011;31884;52.538;13.820;2023-12-04T07:01:43;44.65;;;18.73;;
44842;SDS011;31884;52.538;13.820;2023-12-04T07:04:09;53.22;;;22.05;;
44842;SDS011;31884;52.538;13.820;2023-12-04T07:06:35;39.38;;;16.00;;
44842;SDS011;31884;52.538;13.820;2023-12-04T07:09:01;37.40;;;18.02;;
44842;SDS011;31884;52.538;13.820;2023-12-04T07:11:26;49.03;;;20.73;;
44842;SDS011;31884;52.538;13.820;2023-12-04T07:13:52;41.00;;;18.05;;
44842;SDS011;31884;52.538;13.820;2023-12-04T07:16:17;51.35;;;20.30;;
44842;SDS011;31884;52.538;13.820;2023-12-04T07:18:43;43.10;;;19.45;;
44842;SDS011;31884;52.538;13.820;2023-12-04T07:21:08;51.75;;;17.85;;
44842;SDS011;31884;52.538;13.820;2023-12-04T07:23:34;37.25;;;15.75;;
44842;SDS011;31884;52.538;13.820;2023-12-04T07:26:00;37.08;;;16.63;;
44842;SDS011;31884;52.538;13.820;2023-12-04T07:28:25;41.33;;;17.50;;
44842;SDS011;31884;52.538;13.820;2023-12-04T07:30:51;40.72;;;16.25;;
44842;SDS011;31884;52.538;13.820;2023-12-04T07:33:16;44.83;;;20.55;;
44842;SDS011;31884;52.538;13.820;2023-12-04T07:35:42;54.05;;;21.13;;
44842;SDS011;31884;52.538;13.820;2023-12-04T07:38:08;44.40;;;18.90;;
44842;SDS011;31884;52.538;13.820;2023-12-04T07:40:33;43.13;;;18.20;;
44842;SDS011;31884;52.538;13.820;2023-12-04T07:42:59;44.90;;;19.33;;
44842;SDS011;31884;52.538;13.820;2023-12-04T07:45:24;41.17;;;17.88;;
44842;SDS011;31884;52.538;13.820;2023-12-04T07:47:52;51.00;;;19.92;;
44842;SDS011;31884;52.538;13.820;2023-12-04T07:50:17;43.38;;;18.17;;
44842;SDS011;31884;52.538;13.820;2023-12-04T07:52:42;56.20;;;22.20;;
44842;SDS011;31884;52.538;13.820;2023-12-04T07:55:08;42.40;;;17.23;;
44842;SDS011;31884;52.538;13.820;2023-12-04T07:57:33;45.25;;;19.88;;
44842;SDS011;31884;52.538;13.820;2023-12-04T08:00:00;42.65;;;17.55;;
44842;SDS011;31884;52.538;13.820;2023-12-04T08:02:25;41.38;;;17.58;;
44842;SDS011;31884;52.538;13.820;2023-12-04T08:04:51;42.40;;;16.38;;
44842;SDS011;31884;52.538;13.820;2023-12-04T08:07:16;41.20;;;16.23;;
44842;SDS011;31884;52.538;13.820;2023-12-04T08:09:42;38.25;;;17.15;;
44842;SDS011;31884;52.538;13.820;2023-12-04T08:12:07;42.25;;;18.40;;
44842;SDS011;31884;52.538;13.820;2023-12-04T08:14:33;41.30;;;16.88;;
44842;SDS011;31884;52.538;13.820;2023-12-04T08:16:59;45.17;;;19.55;;
44842;SDS011;31884;52.538;13.820;2023-12-04T08:19:24;41.03;;;15.50;;
44842;SDS011;31884;52.538;13.820;2023-12-04T08:21:50;34.60;;;14.55;;
44842;SDS011;31884;52.538;13.820;2023-12-04T08:24:15;38.15;;;17.85;;
44842;SDS011;31884;52.538;13.820;2023-12-04T08:26:43;39.25;;;15.93;;
44842;SDS011;31884;52.538;13.820;2023-12-04T08:29:10;50.22;;;21.00;;
44842;SDS011;31884;52.538;13.820;2023-12-04T08:31:36;39.00;;;18.27;;
44842;SDS011;31884;52.538;13.820;2023-12-04T08:34:01;38.28;;;17.35;;
44842;SDS011;31884;52.538;13.820;2023-12-04T08:36:27;40.45;;;17.55;;
44842;SDS011;31884;52.538;13.820;2023-12-04T08:38:52;41.35;;;19.15;;
44842;SDS011;31884;52.538;13.820;2023-12-04T08:41:18;39.15;;;16.05;;
44842;SDS011;31884;52.538;13.820;2023-12-04T08:43:43;43.13;;;19.52;;
44842;SDS011;31884;52.538;13.820;2023-12-04T08:46:11;40.00;;;18.00;;
44842;SDS011;31884;52.538;13.820;2023-12-04T08:48:42;42.05;;;17.98;;
44842;SDS011;31884;52.538;13.820;2023-12-04T08:51:14;39.33;;;17.02;;
44842;SDS011;31884;52.538;13.820;2023-12-04T08:53:43;29.48;;;12.23;;
44842;SDS011;31884;52.538;13.820;2023-12-04T08:56:09;37.17;;;16.15;;
44842;SDS011;31884;52.538;13.820;2023-12-04T08:58:35;40.13;;;19.35;;
44842;SDS011;31884;52.538;13.820;2023-12-04T09:01:00;40.55;;;18.77;;
44842;SDS011;31884;52.538;13.820;2023-12-04T09:03:26;48.40;;;21.10;;
44842;SDS011;31884;52.538;13.820;2023-12-04T09:05:51;46.13;;;21.65;;
44842;SDS011;31884;52.538;13.820;2023-12-04T09:08:17;41.20;;;21.02;;
44842;SDS011;31884;52.538;13.820;2023-12-04T09:10:46;39.38;;;18.52;;
44842;SDS011;31884;52.538;13.820;2023-12-04T09:13:12;44.53;;;20.67;;
44842;SDS011;31884;52.538;13.820;2023-12-04T09:15:38;36.45;;;17.23;;
44842;SDS011;31884;52.538;13.820;2023-12-04T09:18:03;37.97;;;18.50;;
44842;SDS011;31884;52.538;13.820;2023-12-04T09:20:29;37.13;;;18.08;;
44842;SDS011;31884;52.538;13.820;2023-12-04T09:22:55;38.20;;;19.10;;
44842;SDS011;31884;52.538;13.820;2023-12-04T09:25:20;44.47;;;20.50;;
44842;SDS011;31884;52.538;13.820;2023-12-04T09:27:46;39.80;;;19.17;;
44842;SDS011;31884;52.538;13.820;2023-12-04T09:30:11;47.75;;;23.40;;
44842;SDS011;31884;52.538;13.820;2023-12-04T09:32:37;38.67;;;19.13;;
44842;SDS011;31884;52.538;13.820;2023-12-04T09:35:02;39.13;;;18.08;;
44842;SDS011;31884;52.538;13.820;2023-12-04T09:37:28;39.50;;;19.55;;
44842;SDS011;31884;52.538;13.820;2023-12-04T09:39:54;42.15;;;18.52;;
44842;SDS011;31884;52.538;13.820;2023-12-04T09:42:19;37.35;;;18.63;;
44842;SDS011;31884;52.538;13.820;2023-12-04T09:44:46;41.53;;;19.88;;
44842;SDS011;31884;52.538;13.820;2023-12-04T09:47:14;39.88;;;19.73;;
44842;SDS011;31884;52.538;13.820;2023-12-04T09:49:42;39.70;;;18.15;;
44842;SDS011;31884;52.538;13.820;2023-12-04T09:52:09;35.17;;;16.67;;
44842;SDS011;31884;52.538;13.820;2023-12-04T09:54:35;34.47;;;16.77;;
44842;SDS011;31884;52.538;13.820;2023-12-04T09:57:01;34.38;;;16.08;;
44842;SDS011;31884;52.538;13.820;2023-12-04T09:59:29;39.38;;;19.15;;
44842;SDS011;31884;52.538;13.820;2023-12-04T10:01:55;36.80;;;17.67;;
44842;SDS011;31884;52.538;13.820;2023-12-04T10:04:21;36.75;;;17.60;;
44842;SDS011;31884;52.538;13.820;2023-12-04T10:06:49;34.65;;;17.27;;
44842;SDS011;31884;52.538;13.820;2023-12-04T10:09:17;36.72;;;17.25;;
44842;SDS011;31884;52.538;13.820;2023-12-04T10:11:44;30.00;;;15.40;;
44842;SDS011;31884;52.538;13.820;2023-12-04T10:14:17;33.58;;;15.70;;
44842;SDS011;31884;52.538;13.820;2023-12-04T10:16:44;31.48;;;16.58;;
44842;SDS011;31884;52.538;13.820;2023-12-04T10:19:23;29.73;;;15.95;;
44842;SDS011;31884;52.538;13.820;2023-12-04T10:21:55;33.92;;;17.30;;
44842;SDS011;31884;52.538;13.820;2023-12-04T10:26:56;42.75;;;20.05;;
44842;SDS011;31884;52.538;13.820;2023-12-04T10:29:22;34.97;;;17.13;;
44842;SDS011;31884;52.538;13.820;2023-12-04T10:31:50;35.42;;;17.58;;
44842;SDS011;31884;52.538;13.820;2023-12-04T10:34:17;35.85;;;18.08;;
44842;SDS011;31884;52.538;13.820;2023-12-04T10:36:43;33.60;;;16.40;;
44842;SDS011;31884;52.538;13.820;2023-12-04T10:39:10;29.60;;;14.93;;
44842;SDS011;31884;52.538;13.820;2023-12-04T10:41:38;30.33;;;14.80;;
44842;SDS011;31884;52.538;13.820;2023-12-04T10:44:04;30.08;;;16.10;;
44842;SDS011;31884;52.538;13.820;2023-12-04T10:46:29;31.35;;;14.75;;
44842;SDS011;31884;52.538;13.820;2023-12-04T10:48:56;32.33;;;16.02;;
44842;SDS011;31884;52.538;13.820;2023-12-04T10:51:22;33.83;;;17.85;;
44842;SDS011;31884;52.538;13.820;2023-12-04T10:53:48;33.80;;;17.05;;
44842;SDS011;31884;52.538;13.820;2023-12-04T10:56:15;33.17;;;18.08;;
44842;SDS011;31884;52.538;13.820;2023-12-04T10:58:44;29.48;;;15.18;;
44842;SDS011;31884;52.538;13.820;2023-12-04T11:01:15;30.42;;;15.10;;
44842;SDS011;31884;52.538;13.820;2023-12-04T11:03:44;33.15;;;15.77;;
44842;SDS011;31884;52.538;13.820;2023-12-04T11:06:12;33.90;;;16.77;;
44842;SDS011;31884;52.538;13.820;2023-12-04T11:08:42;32.83;;;16.98;;
44842;SDS011;31884;52.538;13.820;2023-12-04T11:11:09;29.73;;;15.13;;
44842;SDS011;31884;52.538;13.820;2023-12-04T11:13:41;32.20;;;18.02;;
44842;SDS011;31884;52.538;13.820;2023-12-04T11:21:45;29.98;;;14.27;;
44842;SDS011;31884;52.538;13.820;2023-12-04T11:24:11;25.02;;;13.90;;
44842;SDS011;31884;52.538;13.820;2023-12-04T11:26:37;32.80;;;16.55;;
44842;SDS011;31884;52.538;13.820;2023-12-04T11:29:04;33.80;;;16.50;;
44842;SDS011;31884;52.538;13.820;2023-12-04T11:31:31;26.60;;;14.15;;
44842;SDS011;31884;52.538;13.820;2023-12-04T11:34:01;27.17;;;13.75;;
44842;SDS011;31884;52.538;13.820;2023-12-04T11:36:27;31.92;;;15.00;;
44842;SDS011;31884;52.538;13.820;2023-12-04T11:38:53;27.88;;;14.25;;
44842;SDS011;31884;52.538;13.820;2023-12-04T11:41:19;31.13;;;16.35;;
44842;SDS011;31884;52.538;13.820;2023-12-04T11:43:46;27.08;;;13.18;;
44842;SDS011;31884;52.538;13.820;2023-12-04T11:46:13;23.58;;;13.30;;
44842;SDS011;31884;52.538;13.820;2023-12-04T11:48:45;24.40;;;13.50;;
44842;SDS011;31884;52.538;13.820;2023-12-04T11:51:12;27.65;;;14.18;;
44842;SDS011;31884;52.538;13.820;2023-12-04T11:54:16;29.63;;;16.48;;
44842;SDS011;31884;52.538;13.820;2023-12-04T11:56:56;31.48;;;16.08;;
44842;SDS011;31884;52.538;13.820;2023-12-04T11:59:26;28.73;;;15.55;;
44842;SDS011;31884;52.538;13.820;2023-12-04T12:01:55;24.70;;;13.55;;
44842;SDS011;31884;52.538;13.820;2023-12-04T12:04:22;23.33;;;13.07;;
44842;SDS011;31884;52.538;13.820;2023-12-04T12:06:48;24.77;;;13.13;;
44842;SDS011;31884;52.538;13.820;2023-12-04T12:09:15;27.30;;;14.38;;
44842;SDS011;31884;52.538;13.820;2023-12-04T12:11:41;23.83;;;12.13;;
44842;SDS011;31884;52.538;13.820;2023-12-04T12:14:06;24.63;;;13.02;;
44842;SDS011;31884;52.538;13.820;2023-12-04T12:16:31;24.55;;;13.45;;
44842;SDS011;31884;52.538;13.820;2023-12-04T12:18:57;23.73;;;12.13;;
44842;SDS011;31884;52.538;13.820;2023-12-04T12:21:23;23.35;;;13.27;;
44842;SDS011;31884;52.538;13.820;2023-12-04T12:23:50;22.23;;;12.32;;
44842;SDS011;31884;52.538;13.820;2023-12-04T12:26:15;28.67;;;13.80;;
44842;SDS011;31884;52.538;13.820;2023-12-04T12:28:41;24.30;;;13.30;;
44842;SDS011;31884;52.538;13.820;2023-12-04T12:31:06;26.10;;;13.27;;
44842;SDS011;31884;52.538;13.820;2023-12-04T12:33:32;25.80;;;13.98;;
44842;SDS011;31884;52.538;13.820;2023-12-04T12:35:58;25.88;;;13.50;;
44842;SDS011;31884;52.538;13.820;2023-12-04T12:38:24;26.27;;;13.05;;
44842;SDS011;31884;52.538;13.820;2023-12-04T12:40:50;31.20;;;16.73;;
44842;SDS011;31884;52.538;13.820;2023-12-04T12:43:16;28.65;;;13.52;;
44842;SDS011;31884;52.538;13.820;2023-12-04T12:45:46;24.75;;;12.52;;
44842;SDS011;31884;52.538;13.820;2023-12-04T12:48:15;27.92;;;13.88;;
44842;SDS011;31884;52.538;13.820;2023-12-04T12:50:45;26.63;;;13.75;;
44842;SDS011;31884;52.538;13.820;2023-12-04T12:53:11;34.28;;;14.88;;
44842;SDS011;31884;52.538;13.820;2023-12-04T12:55:38;24.55;;;13.07;;
44842;SDS011;31884;52.538;13.820;2023-12-04T12:58:05;27.77;;;13.65;;
44842;SDS011;31884;52.538;13.820;2023-12-04T13:00:32;27.02;;;14.35;;
44842;SDS011;31884;52.538;13.820;2023-12-04T13:02:59;27.10;;;13.90;;
44842;SDS011;31884;52.538;13.820;2023-12-04T13:05:24;24.20;;;13.98;;
44842;SDS011;31884;52.538;13.820;2023-12-04T13:07:50;26.60;;;13.77;;
44842;SDS011;31884;52.538;13.820;2023-12-04T13:10:15;26.65;;;12.70;;
44842;SDS011;31884;52.538;13.820;2023-12-04T13:12:41;23.83;;;12.63;;
44842;SDS011;31884;52.538;13.820;2023-12-04T13:15:06;24.83;;;13.07;;
44842;SDS011;31884;52.538;13.820;2023-12-04T13:17:32;27.00;;;13.23;;
44842;SDS011;31884;52.538;13.820;2023-12-04T13:19:58;24.65;;;12.80;;
44842;SDS011;31884;52.538;13.820;2023-12-04T13:22:23;25.05;;;13.18;;
44842;SDS011;31884;52.538;13.820;2023-12-04T13:24:50;24.25;;;12.75;;
44842;SDS011;31884;52.538;13.820;2023-12-04T13:27:15;25.60;;;14.18;;
44842;SDS011;31884;52.538;13.820;2023-12-04T13:29:41;30.00;;;15.00;;
44842;SDS011;31884;52.538;13.820;2023-12-04T13:32:06;24.70;;;13.77;;
44842;SDS011;31884;52.538;13.820;2023-12-04T13:34:32;30.67;;;15.77;;
44842;SDS011;31884;52.538;13.820;2023-12-04T13:36:58;25.92;;;14.73;;
44842;SDS011;31884;52.538;13.820;2023-12-04T13:39:23;25.33;;;13.90;;
44842;SDS011;31884;52.538;13.820;2023-12-04T13:42:01;24.00;;;12.40;;
44842;SDS011;31884;52.538;13.820;2023-12-04T13:44:45;27.80;;;15.07;;
44842;SDS011;31884;52.538;13.820;2023-12-04T13:47:11;29.88;;;15.00;;
44842;SDS011;31884;52.538;13.820;2023-12-04T13:49:37;25.02;;;12.88;;
44842;SDS011;31884;52.538;13.820;2023-12-04T13:52:02;31.25;;;14.80;;
44842;SDS011;31884;52.538;13.820;2023-12-04T13:54:32;26.52;;;13.50;;
44842;SDS011;31884;52.538;13.820;2023-12-04T13:57:12;29.67;;;14.38;;
44842;SDS011;31884;52.538;13.820;2023-12-04T13:59:46;25.77;;;12.48;;
44842;SDS011;31884;52.538;13.820;2023-12-04T14:02:11;24.92;;;13.02;;
44842;SDS011;31884;52.538;13.820;2023-12-04T14:04:37;27.00;;;15.15;;
44842;SDS011;31884;52.538;13.820;2023-12-04T14:07:04;29.92;;;15.07;;
44842;SDS011;31884;52.538;13.820;2023-12-04T14:09:30;33.90;;;17.20;;
44842;SDS011;31884;52.538;13.820;2023-12-04T14:11:57;26.77;;;14.82;;
44842;SDS011;31884;52.538;13.820;2023-12-04T14:14:22;29.48;;;15.60;;